Time;durP1;ratioP1;P1;durP2;ratioP2;P2;SDS_P1;SDS_P2;PMS_P1;PMS_P2;Temp;Humidity;BMP_temperature;BMP_pressure;BME280_temperature;BME280_humidity;BME280_pressure;Samples;Min_cycle;Max_cycle;Signal;HPM_P1;HPM_P2
2022/03/21 00:02:03;;;;;;;58.83;38.27;;;;;;;;;;5030865;28;20205;-70
2022/03/21 00:04:28;;;;;;;55.07;37.90;;;;;;;;;;5031186;28;20190;-70
2022/03/21 00:06:53;;;;;;;55.03;36.37;;;;;;;;;;5030796;28;20639;-72
2022/03/21 00:09:18;;;;;;;54.90;35.83;;;;;;;;;;5035989;28;20908;-70
2022/03/21 00:11:44;;;;;;;56.10;37.03;;;;;;;;;;5028220;28;20206;-69
2022/03/21 00:14:12;;;;;;;53.93;36.63;;;;;;;;;;5026645;28;20240;-69
2022/03/21 00:16:39;;;;;;;54.60;37.10;;;;;;;;;;5025876;28;20178;-69
2022/03/21 00:19:04;;;;;;;53.93;35.53;;;;;;;;;;5025040;28;20179;-70
2022/03/21 00:21:29;;;;;;;52.13;35.43;;;;;;;;;;5012262;28;20194;-70
2022/03/21 00:23:55;;;;;;;57.33;36.90;;;;;;;;;;5030714;28;20182;-69
2022/03/21 00:26:20;;;;;;;56.97;36.50;;;;;;;;;;5028973;28;20179;-71
2022/03/21 00:28:45;;;;;;;59.23;38.97;;;;;;;;;;5025800;28;20174;-72
2022/03/21 00:31:10;;;;;;;59.23;37.80;;;;;;;;;;5030755;28;20764;-69
2022/03/21 00:33:36;;;;;;;55.33;36.30;;;;;;;;;;5030708;28;20679;-70
2022/03/21 00:36:01;;;;;;;55.13;37.43;;;;;;;;;;5031082;28;20213;-69
2022/03/21 00:38:26;;;;;;;55.10;36.47;;;;;;;;;;5013663;28;20178;-71
2022/03/21 00:40:51;;;;;;;53.77;36.37;;;;;;;;;;5030876;28;20251;-69
2022/03/21 00:43:19;;;;;;;53.07;35.27;;;;;;;;;;5025283;28;20671;-71
2022/03/21 00:45:46;;;;;;;56.53;36.77;;;;;;;;;;5029912;28;20180;-68
2022/03/21 00:48:11;;;;;;;58.23;37.80;;;;;;;;;;5034014;28;20175;-70
2022/03/21 00:50:36;;;;;;;64.50;39.97;;;;;;;;;;5033023;28;20166;-69
2022/03/21 00:53:01;;;;;;;63.23;38.67;;;;;;;;;;5034036;28;20289;-69
2022/03/21 00:55:28;;;;;;;59.63;38.57;;;;;;;;;;5030971;28;20297;-69
2022/03/21 00:57:54;;;;;;;59.80;38.47;;;;;;;;;;5030297;28;20186;-68
2022/03/21 01:00:21;;;;;;;59.67;37.87;;;;;;;;;;5032269;28;20178;-69
2022/03/21 01:02:46;;;;;;;61.93;38.57;;;;;;;;;;5032210;28;20202;-70
2022/03/21 01:05:12;;;;;;;63.10;40.73;;;;;;;;;;5032617;28;20556;-68
2022/03/21 01:07:38;;;;;;;61.17;39.93;;;;;;;;;;5025792;28;20183;-69
2022/03/21 01:10:04;;;;;;;67.83;42.33;;;;;;;;;;5017358;28;20234;-69
2022/03/21 01:12:30;;;;;;;59.63;38.53;;;;;;;;;;5011204;28;20769;-70
2022/03/21 01:14:55;;;;;;;65.43;39.80;;;;;;;;;;5024447;28;20198;-69
2022/03/21 01:17:20;;;;;;;63.17;40.27;;;;;;;;;;5021599;28;20178;-68
2022/03/21 01:19:46;;;;;;;62.03;39.83;;;;;;;;;;5028388;28;20201;-68
2022/03/21 01:22:11;;;;;;;60.30;40.47;;;;;;;;;;5034252;28;20197;-69
2022/03/21 01:24:38;;;;;;;56.60;39.43;;;;;;;;;;5034040;28;20664;-69
2022/03/21 01:27:03;;;;;;;61.37;39.10;;;;;;;;;;5039272;28;20648;-69
2022/03/21 01:29:28;;;;;;;61.17;37.47;;;;;;;;;;5030795;28;20197;-69
2022/03/21 01:31:54;;;;;;;61.30;38.20;;;;;;;;;;5031765;28;20291;-69
2022/03/21 01:34:19;;;;;;;64.53;40.90;;;;;;;;;;5031220;28;20206;-69
2022/03/21 01:36:44;;;;;;;59.73;38.17;;;;;;;;;;5025724;28;20702;-69
2022/03/21 01:39:09;;;;;;;61.77;40.30;;;;;;;;;;5029642;28;20179;-69
2022/03/21 01:41:35;;;;;;;60.23;38.57;;;;;;;;;;5013858;28;20213;-69
2022/03/21 01:44:01;;;;;;;54.93;37.80;;;;;;;;;;5029940;28;20186;-69
2022/03/21 01:46:27;;;;;;;59.03;37.00;;;;;;;;;;5027999;28;20664;-70
2022/03/21 01:48:52;;;;;;;56.27;37.03;;;;;;;;;;5030644;28;20186;-69
2022/03/21 01:51:17;;;;;;;57.07;36.90;;;;;;;;;;5013320;28;20655;-69
2022/03/21 01:56:26;;;;;;;63.67;39.03;;;;;;;;;;5031311;28;20619;-69
2022/03/21 01:58:52;;;;;;;69.53;40.17;;;;;;;;;;5032087;28;20206;-69
2022/03/21 02:01:17;;;;;;;68.77;40.90;;;;;;;;;;5032596;28;20304;-69
2022/03/21 02:03:42;;;;;;;61.67;40.20;;;;;;;;;;5031364;28;20632;-69
2022/03/21 02:06:07;;;;;;;60.67;41.30;;;;;;;;;;5039290;28;20190;-68
2022/03/21 02:08:33;;;;;;;61.83;41.17;;;;;;;;;;5047791;28;20197;-68
2022/03/21 02:10:58;;;;;;;64.80;39.20;;;;;;;;;;5050198;28;20589;-68
2022/03/21 02:13:23;;;;;;;66.83;42.47;;;;;;;;;;5049011;28;20190;-69
2022/03/21 02:15:48;;;;;;;71.70;41.77;;;;;;;;;;5042294;28;20202;-68
2022/03/21 02:18:16;;;;;;;64.17;40.77;;;;;;;;;;5046129;28;20692;-68
2022/03/21 02:20:42;;;;;;;68.03;41.90;;;;;;;;;;5029539;28;20170;-69
2022/03/21 02:23:11;;;;;;;62.93;39.47;;;;;;;;;;5033104;28;20171;-69
2022/03/21 02:25:41;;;;;;;74.17;42.20;;;;;;;;;;5015631;28;20631;-69
2022/03/21 02:28:08;;;;;;;66.47;40.40;;;;;;;;;;5015684;28;20202;-69
2022/03/21 02:30:34;;;;;;;64.30;39.77;;;;;;;;;;5032679;28;20186;-69
2022/03/21 02:33:00;;;;;;;61.00;39.50;;;;;;;;;;5027110;23;20565;-69
2022/03/21 02:35:26;;;;;;;63.20;39.83;;;;;;;;;;5009287;28;20199;-70
2022/03/21 02:37:52;;;;;;;62.27;39.53;;;;;;;;;;5010014;28;20202;-69
2022/03/21 02:40:17;;;;;;;67.40;41.97;;;;;;;;;;5008640;28;20615;-67
2022/03/21 02:42:42;;;;;;;67.00;41.00;;;;;;;;;;4995462;28;20254;-68
2022/03/21 02:45:08;;;;;;;64.63;41.10;;;;;;;;;;4990092;28;20188;-67
2022/03/21 02:47:34;;;;;;;68.03;41.87;;;;;;;;;;4991596;28;20192;-67
2022/03/21 02:50:00;;;;;;;66.73;42.10;;;;;;;;;;4990767;28;20183;-68
2022/03/21 02:52:26;;;;;;;69.80;43.50;;;;;;;;;;4991720;28;20278;-68
2022/03/21 02:54:51;;;;;;;74.07;44.07;;;;;;;;;;4991434;28;20214;-68
2022/03/21 02:57:17;;;;;;;65.63;41.90;;;;;;;;;;4991716;28;20183;-68
2022/03/21 02:59:42;;;;;;;73.37;43.53;;;;;;;;;;4998334;28;20206;-70
2022/03/21 03:02:08;;;;;;;69.17;43.50;;;;;;;;;;4986959;28;20203;-69
2022/03/21 03:04:33;;;;;;;68.17;42.93;;;;;;;;;;4990692;28;20172;-70
2022/03/21 03:06:58;;;;;;;69.40;43.27;;;;;;;;;;4989982;28;20199;-70
2022/03/21 03:09:23;;;;;;;73.53;45.10;;;;;;;;;;4996542;28;20221;-69
2022/03/21 03:11:49;;;;;;;68.87;43.40;;;;;;;;;;4991066;28;20199;-69
2022/03/21 03:14:14;;;;;;;71.93;44.43;;;;;;;;;;4988199;28;20610;-68
2022/03/21 03:16:39;;;;;;;64.77;43.60;;;;;;;;;;4985149;28;20603;-68
2022/03/21 03:19:04;;;;;;;68.93;43.10;;;;;;;;;;4986155;28;20282;-68
2022/03/21 03:21:55;;;;;;;72.57;44.43;;;;;;;;;;4989615;28;20199;-68
2022/03/21 03:24:23;;;;;;;71.30;44.67;;;;;;;;;;4964982;28;20231;-68
2022/03/21 03:26:48;;;;;;;68.33;43.07;;;;;;;;;;4972889;28;20442;-68
2022/03/21 03:29:13;;;;;;;74.23;45.57;;;;;;;;;;4989023;28;20188;-68
2022/03/21 03:31:39;;;;;;;72.23;44.30;;;;;;;;;;4989511;28;20204;-69
2022/03/21 03:34:04;;;;;;;65.77;41.70;;;;;;;;;;4987247;28;20645;-69
2022/03/21 03:36:29;;;;;;;71.37;43.73;;;;;;;;;;4990191;28;20206;-68
2022/03/21 03:38:55;;;;;;;69.27;41.77;;;;;;;;;;4990519;28;20179;-69
2022/03/21 03:41:20;;;;;;;71.47;43.70;;;;;;;;;;4989418;28;20200;-69
2022/03/21 03:43:47;;;;;;;69.00;42.37;;;;;;;;;;4990467;28;20184;-68
2022/03/21 03:46:13;;;;;;;70.63;42.47;;;;;;;;;;4975979;28;20192;-68
2022/03/21 03:48:38;;;;;;;66.30;42.27;;;;;;;;;;4992736;28;20238;-69
2022/03/21 03:51:04;;;;;;;65.33;42.03;;;;;;;;;;4986084;28;20195;-69
2022/03/21 03:53:29;;;;;;;67.70;43.47;;;;;;;;;;4988456;28;20219;-68
2022/03/21 03:55:54;;;;;;;66.53;44.33;;;;;;;;;;4991518;28;20211;-68
2022/03/21 03:58:19;;;;;;;68.90;42.27;;;;;;;;;;4988531;28;20185;-68
2022/03/21 04:00:46;;;;;;;66.77;41.60;;;;;;;;;;4988349;28;20183;-69
2022/03/21 04:05:55;;;;;;;65.80;42.10;;;;;;;;;;4981705;28;20209;-68
2022/03/21 04:08:20;;;;;;;67.20;43.07;;;;;;;;;;4984303;28;20184;-68
2022/03/21 04:10:45;;;;;;;70.40;42.23;;;;;;;;;;4987871;28;20176;-68
2022/03/21 04:13:10;;;;;;;64.73;41.50;;;;;;;;;;4992392;28;20211;-68
2022/03/21 04:15:35;;;;;;;65.47;40.93;;;;;;;;;;4987082;28;20207;-69
2022/03/21 04:18:06;;;;;;;65.07;39.70;;;;;;;;;;4970269;28;20172;-68
2022/03/21 04:20:32;;;;;;;63.07;39.77;;;;;;;;;;4986829;28;20175;-69
2022/03/21 04:22:58;;;;;;;68.53;42.30;;;;;;;;;;4988624;28;20203;-68
2022/03/21 04:25:23;;;;;;;68.60;42.23;;;;;;;;;;4990327;28;20649;-69
2022/03/21 04:27:48;;;;;;;61.10;38.20;;;;;;;;;;4993688;28;20266;-69
2022/03/21 04:30:14;;;;;;;68.57;41.23;;;;;;;;;;5003137;28;20183;-68
2022/03/21 04:32:39;;;;;;;59.63;39.70;;;;;;;;;;4998061;28;20211;-68
2022/03/21 04:35:05;;;;;;;64.27;41.07;;;;;;;;;;4992116;28;21013;-69
2022/03/21 04:37:30;;;;;;;70.43;42.23;;;;;;;;;;4991830;28;20179;-69
2022/03/21 04:39:56;;;;;;;63.57;38.77;;;;;;;;;;4991026;28;20339;-68
2022/03/21 04:42:22;;;;;;;64.13;38.80;;;;;;;;;;4991736;28;20286;-69
2022/03/21 04:44:48;;;;;;;62.80;40.20;;;;;;;;;;4992160;28;20564;-69
2022/03/21 04:47:14;;;;;;;63.83;38.97;;;;;;;;;;4991688;28;20219;-68
2022/03/21 04:49:39;;;;;;;60.10;38.00;;;;;;;;;;4994359;28;20183;-69
2022/03/21 04:52:06;;;;;;;65.90;40.77;;;;;;;;;;4976366;28;20204;-68
2022/03/21 04:54:31;;;;;;;57.93;37.10;;;;;;;;;;4990709;28;20629;-68
2022/03/21 04:56:56;;;;;;;61.43;39.20;;;;;;;;;;4992626;28;20179;-69
2022/03/21 04:59:22;;;;;;;64.60;37.57;;;;;;;;;;4992460;28;20176;-69
2022/03/21 05:01:47;;;;;;;65.07;39.93;;;;;;;;;;4992122;28;20246;-69
2022/03/21 05:04:12;;;;;;;65.57;39.17;;;;;;;;;;4992343;28;20188;-69
2022/03/21 05:06:37;;;;;;;65.77;39.73;;;;;;;;;;4989633;28;20551;-69
2022/03/21 05:09:05;;;;;;;58.00;36.80;;;;;;;;;;4990229;28;20326;-69
2022/03/21 05:11:31;;;;;;;58.10;36.60;;;;;;;;;;4980812;28;20202;-69
2022/03/21 05:13:56;;;;;;;60.20;37.23;;;;;;;;;;4997303;28;20648;-69
2022/03/21 05:16:21;;;;;;;59.27;37.63;;;;;;;;;;4991131;28;20581;-69
2022/03/21 05:18:47;;;;;;;60.93;37.73;;;;;;;;;;4997805;28;20182;-68
2022/03/21 05:21:12;;;;;;;60.40;36.90;;;;;;;;;;4992793;28;20180;-68
2022/03/21 05:31:49;;;;;;;60.77;37.53;;;;;;;;;;4950419;28;1050415;-68
2022/03/21 05:36:59;;;;;;;57.37;35.37;;;;;;;;;;4992025;28;20275;-68
2022/03/21 05:39:24;;;;;;;62.53;36.93;;;;;;;;;;4993003;28;20270;-69
2022/03/21 05:41:52;;;;;;;63.90;38.00;;;;;;;;;;4995257;28;20712;-68
2022/03/21 05:44:18;;;;;;;63.17;37.23;;;;;;;;;;4998154;28;20180;-68
2022/03/21 05:46:43;;;;;;;61.37;39.03;;;;;;;;;;4992719;28;20198;-68
2022/03/21 05:49:08;;;;;;;65.37;39.07;;;;;;;;;;4987685;28;20180;-68
2022/03/21 05:51:35;;;;;;;67.80;39.60;;;;;;;;;;4975194;28;20199;-69
2022/03/21 05:54:05;;;;;;;66.10;38.87;;;;;;;;;;4989099;28;20195;-69
2022/03/21 05:56:31;;;;;;;73.73;40.47;;;;;;;;;;4990570;28;20168;-68
2022/03/21 05:58:59;;;;;;;72.33;39.57;;;;;;;;;;4974475;28;20211;-69
2022/03/21 06:01:25;;;;;;;70.77;40.03;;;;;;;;;;4981453;28;20689;-69
2022/03/21 06:03:54;;;;;;;64.53;39.57;;;;;;;;;;4985762;28;20254;-68
2022/03/21 06:06:20;;;;;;;67.37;40.87;;;;;;;;;;4985758;28;20184;-69
2022/03/21 06:08:45;;;;;;;68.37;38.53;;;;;;;;;;4984008;28;20218;-69
2022/03/21 06:11:12;;;;;;;69.77;41.43;;;;;;;;;;4984064;28;20646;-69
2022/03/21 06:13:39;;;;;;;66.33;40.07;;;;;;;;;;4987051;28;20183;-68
2022/03/21 06:16:05;;;;;;;72.20;42.17;;;;;;;;;;4991118;28;20254;-69
2022/03/21 06:18:31;;;;;;;74.30;43.17;;;;;;;;;;4991477;28;20214;-69
2022/03/21 06:20:57;;;;;;;75.00;43.33;;;;;;;;;;4980899;28;20179;-68
2022/03/21 06:23:22;;;;;;;70.27;40.70;;;;;;;;;;4997835;28;20187;-68
2022/03/21 06:25:47;;;;;;;71.47;42.97;;;;;;;;;;4991900;28;20194;-69
2022/03/21 06:28:12;;;;;;;79.17;45.33;;;;;;;;;;4991426;28;20180;-69
2022/03/21 06:30:37;;;;;;;73.70;43.90;;;;;;;;;;4995622;28;20179;-69
2022/03/21 06:33:03;;;;;;;79.33;42.97;;;;;;;;;;4992064;28;20301;-69
2022/03/21 06:35:28;;;;;;;81.43;45.73;;;;;;;;;;4989762;28;20217;-69
2022/03/21 06:37:53;;;;;;;75.67;42.80;;;;;;;;;;4990777;28;20650;-68
2022/03/21 06:40:18;;;;;;;72.73;43.50;;;;;;;;;;4992045;28;20175;-69
2022/03/21 06:42:44;;;;;;;76.60;45.07;;;;;;;;;;4992641;28;20199;-71
2022/03/21 06:45:09;;;;;;;75.33;43.63;;;;;;;;;;4995429;28;20724;-69
2022/03/21 06:47:34;;;;;;;71.67;45.57;;;;;;;;;;4991569;28;20179;-69
2022/03/21 06:49:59;;;;;;;73.10;44.00;;;;;;;;;;4992172;28;20634;-69
2022/03/21 06:52:25;;;;;;;69.93;41.50;;;;;;;;;;4991299;28;20218;-69
2022/03/21 06:54:50;;;;;;;75.03;42.87;;;;;;;;;;4991720;28;20583;-69
2022/03/21 06:57:16;;;;;;;69.37;43.30;;;;;;;;;;4990549;28;20191;-69
2022/03/21 06:59:42;;;;;;;62.03;38.37;;;;;;;;;;4990800;28;20559;-69
2022/03/21 07:02:07;;;;;;;54.90;35.07;;;;;;;;;;4991677;28;20192;-68
2022/03/21 07:04:32;;;;;;;59.53;36.70;;;;;;;;;;5002352;28;20179;-70
2022/03/21 07:06:58;;;;;;;58.67;37.47;;;;;;;;;;4990101;28;20598;-69
2022/03/21 07:09:24;;;;;;;51.13;35.00;;;;;;;;;;4990432;28;20187;-68
2022/03/21 07:11:49;;;;;;;52.10;34.23;;;;;;;;;;4990244;28;20624;-69
2022/03/21 07:14:14;;;;;;;44.87;31.03;;;;;;;;;;4990719;28;20191;-69
2022/03/21 07:16:40;;;;;;;45.90;31.70;;;;;;;;;;4989472;28;20665;-69
2022/03/21 07:19:06;;;;;;;47.70;31.90;;;;;;;;;;4991978;28;20198;-69
2022/03/21 07:21:31;;;;;;;48.23;30.97;;;;;;;;;;4981006;28;20195;-68
2022/03/21 07:23:56;;;;;;;43.23;31.00;;;;;;;;;;4990741;28;20246;-69
2022/03/21 07:26:21;;;;;;;39.67;27.90;;;;;;;;;;4972293;28;20237;-69
2022/03/21 07:28:47;;;;;;;42.60;29.03;;;;;;;;;;4991133;28;20188;-69
2022/03/21 07:31:13;;;;;;;39.07;29.00;;;;;;;;;;4990749;28;20203;-69
2022/03/21 07:33:39;;;;;;;40.87;28.17;;;;;;;;;;4989431;28;20606;-69
2022/03/21 07:36:04;;;;;;;38.63;28.43;;;;;;;;;;4990695;28;20210;-69
2022/03/21 07:38:30;;;;;;;36.30;26.50;;;;;;;;;;4992723;28;20677;-69
2022/03/21 07:40:55;;;;;;;36.73;25.73;;;;;;;;;;4986203;28;20176;-69
2022/03/21 07:43:21;;;;;;;33.97;25.63;;;;;;;;;;4981937;28;20198;-68
2022/03/21 07:48:30;;;;;;;32.43;22.87;;;;;;;;;;4994727;28;20194;-69
2022/03/21 07:50:56;;;;;;;31.20;20.40;;;;;;;;;;5000153;28;20184;-69
2022/03/21 07:53:21;;;;;;;33.90;22.10;;;;;;;;;;5003213;28;20649;-69
2022/03/21 07:55:47;;;;;;;29.57;21.97;;;;;;;;;;4995458;28;20273;-70
2022/03/21 07:58:12;;;;;;;30.93;22.13;;;;;;;;;;5009167;28;20252;-70
2022/03/21 08:00:39;;;;;;;27.27;21.03;;;;;;;;;;5007007;28;20203;-70
2022/03/21 08:03:05;;;;;;;30.37;21.17;;;;;;;;;;5006506;28;20210;-70
2022/03/21 08:05:30;;;;;;;30.53;22.03;;;;;;;;;;4998603;28;20171;-69
2022/03/21 08:07:56;;;;;;;26.50;19.33;;;;;;;;;;4999684;28;20250;-69
2022/03/21 08:10:22;;;;;;;26.87;19.27;;;;;;;;;;4983037;28;20608;-70
2022/03/21 08:12:47;;;;;;;28.20;19.40;;;;;;;;;;4984742;28;20212;-70
2022/03/21 08:15:13;;;;;;;27.57;20.53;;;;;;;;;;4983246;28;20204;-69
2022/03/21 08:17:47;;;;;;;25.53;18.27;;;;;;;;;;4994982;28;20531;-69
2022/03/21 08:20:13;;;;;;;27.20;19.47;;;;;;;;;;4993216;28;20179;-70
2022/03/21 08:22:39;;;;;;;27.83;18.60;;;;;;;;;;4996379;28;20277;-70
2022/03/21 08:25:04;;;;;;;25.63;18.30;;;;;;;;;;4997249;28;20216;-69
2022/03/21 08:27:31;;;;;;;23.70;17.53;;;;;;;;;;4989475;28;20279;-69
2022/03/21 08:29:57;;;;;;;23.43;18.20;;;;;;;;;;4990695;28;20238;-69
2022/03/21 08:32:22;;;;;;;22.13;17.13;;;;;;;;;;4986966;28;20211;-69
2022/03/21 08:34:47;;;;;;;23.23;17.10;;;;;;;;;;4991228;28;20207;-69
2022/03/21 08:37:12;;;;;;;21.23;16.87;;;;;;;;;;4990546;28;20642;-69
2022/03/21 08:39:37;;;;;;;21.13;16.83;;;;;;;;;;4994735;28;20171;-69
2022/03/21 08:42:03;;;;;;;18.87;15.30;;;;;;;;;;4992343;28;20200;-70
2022/03/21 08:44:28;;;;;;;21.10;15.60;;;;;;;;;;4989147;28;20172;-70
2022/03/21 08:46:53;;;;;;;20.13;15.53;;;;;;;;;;4994036;28;20191;-68
2022/03/21 08:49:26;;;;;;;21.15;15.82;;;;;;;;;;4998871;28;20191;-68
2022/03/21 08:51:51;;;;;;;21.70;15.50;;;;;;;;;;4988621;28;20249;-68
2022/03/21 08:54:16;;;;;;;20.42;14.88;;;;;;;;;;4995848;28;20179;-70
2022/03/21 08:56:41;;;;;;;22.30;15.27;;;;;;;;;;4994972;28;20259;-70
2022/03/21 08:59:07;;;;;;;20.15;16.10;;;;;;;;;;4989474;28;20179;-68
2022/03/21 09:01:32;;;;;;;25.73;15.15;;;;;;;;;;4995524;28;20291;-67
2022/03/21 09:04:01;;;;;;;20.25;15.05;;;;;;;;;;4993927;28;20207;-70
2022/03/21 09:06:26;;;;;;;20.33;15.25;;;;;;;;;;4994771;28;20270;-67
2022/03/21 09:08:52;;;;;;;18.67;14.68;;;;;;;;;;5000351;28;20267;-70
2022/03/21 09:11:17;;;;;;;19.77;14.90;;;;;;;;;;4995188;28;20196;-70
2022/03/21 09:13:43;;;;;;;16.95;13.93;;;;;;;;;;4996544;28;20171;-70
2022/03/21 09:16:08;;;;;;;21.15;14.88;;;;;;;;;;4999985;28;20233;-70
2022/03/21 09:18:33;;;;;;;18.90;14.85;;;;;;;;;;4995420;28;20203;-70
2022/03/21 09:20:59;;;;;;;18.02;14.57;;;;;;;;;;4993858;28;20175;-68
2022/03/21 09:23:24;;;;;;;17.13;14.18;;;;;;;;;;4999133;28;20184;-67
2022/03/21 09:25:49;;;;;;;21.75;14.95;;;;;;;;;;4993344;28;20179;-68
2022/03/21 09:28:14;;;;;;;24.63;17.05;;;;;;;;;;4999114;28;20225;-70
2022/03/21 09:30:40;;;;;;;18.17;14.13;;;;;;;;;;5001630;28;20555;-67
2022/03/21 09:33:05;;;;;;;18.00;14.13;;;;;;;;;;4999098;28;20563;-68
2022/03/21 09:35:30;;;;;;;18.15;13.88;;;;;;;;;;4997595;28;20203;-67
2022/03/21 09:37:56;;;;;;;20.20;15.00;;;;;;;;;;4999866;28;20668;-67
2022/03/21 09:40:21;;;;;;;19.75;14.05;;;;;;;;;;5002254;28;20405;-67
2022/03/21 09:42:47;;;;;;;18.58;14.45;;;;;;;;;;5000829;28;20583;-67
2022/03/21 09:45:13;;;;;;;21.48;16.35;;;;;;;;;;4994701;28;20281;-67
2022/03/21 09:50:26;;;;;;;18.80;15.07;;;;;;;;;;4992607;28;20241;-69
2022/03/21 09:52:51;;;;;;;23.42;15.48;;;;;;;;;;4960536;28;20199;-69
2022/03/21 09:55:16;;;;;;;21.63;16.02;;;;;;;;;;4995094;28;20195;-66
2022/03/21 09:57:41;;;;;;;22.87;15.63;;;;;;;;;;4989784;28;20262;-69
2022/03/21 10:00:07;;;;;;;21.93;15.50;;;;;;;;;;4966716;28;20946;-69
2022/03/21 10:02:34;;;;;;;20.92;15.88;;;;;;;;;;4989637;28;20484;-69
2022/03/21 10:04:59;;;;;;;19.25;15.98;;;;;;;;;;4989344;28;20183;-69
2022/03/21 10:07:25;;;;;;;19.90;15.13;;;;;;;;;;4990639;28;20194;-69
2022/03/21 10:10:05;;;;;;;22.27;15.88;;;;;;;;;;4991471;28;20582;-69
2022/03/21 10:12:30;;;;;;;18.25;14.55;;;;;;;;;;4988563;28;20207;-67
2022/03/21 10:14:57;;;;;;;19.20;14.18;;;;;;;;;;4991833;28;20215;-69
2022/03/21 10:17:25;;;;;;;17.00;13.50;;;;;;;;;;4972151;28;20188;-69
2022/03/21 10:19:52;;;;;;;17.88;13.55;;;;;;;;;;4988885;28;20258;-67
2022/03/21 10:22:20;;;;;;;17.67;13.57;;;;;;;;;;4971907;28;20195;-69
2022/03/21 10:24:46;;;;;;;15.45;13.38;;;;;;;;;;4990064;28;20657;-69
2022/03/21 10:27:32;;;;;;;16.08;13.25;;;;;;;;;;4990446;28;20192;-69
2022/03/21 10:30:00;;;;;;;22.00;13.50;;;;;;;;;;4988355;28;20191;-67
2022/03/21 10:32:39;;;;;;;17.50;13.18;;;;;;;;;;4994140;28;20215;-68
2022/03/21 10:35:06;;;;;;;17.08;13.40;;;;;;;;;;5001025;28;20639;-69
2022/03/21 10:37:50;;;;;;;16.35;13.25;;;;;;;;;;4996088;28;20172;-69
2022/03/21 10:40:15;;;;;;;17.35;13.07;;;;;;;;;;4995900;28;20188;-67
2022/03/21 10:42:52;;;;;;;17.98;13.50;;;;;;;;;;4988051;28;20549;-67
2022/03/21 10:45:17;;;;;;;16.40;11.88;;;;;;;;;;4992307;28;20190;-67
2022/03/21 10:47:49;;;;;;;15.90;11.23;;;;;;;;;;4998766;28;20168;-67
2022/03/21 10:50:14;;;;;;;15.88;12.40;;;;;;;;;;4991173;28;20178;-67
2022/03/21 10:52:39;;;;;;;17.38;11.88;;;;;;;;;;4984841;28;20568;-67
2022/03/21 10:55:05;;;;;;;13.43;11.63;;;;;;;;;;4994603;28;20274;-67
2022/03/21 10:57:31;;;;;;;14.43;12.48;;;;;;;;;;4983352;28;20417;-67
2022/03/21 11:00:20;;;;;;;15.30;11.15;;;;;;;;;;4989586;28;20179;-67
2022/03/21 11:02:48;;;;;;;16.27;10.77;;;;;;;;;;4967301;28;20203;-67
2022/03/21 11:05:13;;;;;;;13.68;11.25;;;;;;;;;;4986255;28;20260;-66
2022/03/21 11:07:39;;;;;;;14.85;11.48;;;;;;;;;;4990575;28;20612;-67
2022/03/21 11:10:04;;;;;;;12.55;11.00;;;;;;;;;;4984699;28;20595;-67
2022/03/21 11:12:29;;;;;;;13.90;11.32;;;;;;;;;;4984024;28;20236;-68
2022/03/21 11:14:54;;;;;;;14.90;11.27;;;;;;;;;;4994608;28;20211;-68
2022/03/21 11:17:20;;;;;;;13.67;11.60;;;;;;;;;;4987414;28;20246;-68
2022/03/21 11:19:45;;;;;;;13.38;10.73;;;;;;;;;;4988375;28;20436;-68
2022/03/21 11:22:11;;;;;;;14.88;11.75;;;;;;;;;;4991283;28;20218;-68
2022/03/21 11:24:36;;;;;;;13.35;11.20;;;;;;;;;;4984258;28;20180;-68
2022/03/21 11:27:19;;;;;;;16.90;12.20;;;;;;;;;;4997834;28;20183;-68
2022/03/21 11:29:56;;;;;;;20.33;12.57;;;;;;;;;;4985603;28;20207;-68
2022/03/21 11:32:31;;;;;;;16.33;12.70;;;;;;;;;;4994930;28;20218;-68
2022/03/21 11:35:15;;;;;;;16.38;11.90;;;;;;;;;;4995847;28;20225;-68
2022/03/21 11:37:42;;;;;;;16.88;12.90;;;;;;;;;;4988773;28;20591;-68
2022/03/21 11:40:26;;;;;;;15.25;11.80;;;;;;;;;;4989221;28;20563;-68
2022/03/21 11:42:52;;;;;;;17.23;12.60;;;;;;;;;;4990400;28;20203;-68
2022/03/21 11:45:27;;;;;;;16.73;12.50;;;;;;;;;;4989347;28;20707;-69
2022/03/21 11:48:11;;;;;;;16.33;11.32;;;;;;;;;;4984842;28;20729;-68
2022/03/21 11:50:36;;;;;;;14.93;11.55;;;;;;;;;;4983861;28;20262;-68
2022/03/21 11:53:09;;;;;;;15.63;13.02;;;;;;;;;;4985597;28;20294;-68
2022/03/21 11:55:37;;;;;;;18.13;12.10;;;;;;;;;;4984263;28;20222;-68
2022/03/21 11:58:32;;;;;;;16.95;12.85;;;;;;;;;;4989736;28;20713;-68
2022/03/21 12:01:09;;;;;;;15.73;12.50;;;;;;;;;;4972225;28;20594;-68
2022/03/21 12:03:35;;;;;;;14.98;12.40;;;;;;;;;;4982955;28;20178;-68
2022/03/21 12:06:19;;;;;;;17.42;13.27;;;;;;;;;;4990088;28;20179;-68
2022/03/21 12:08:45;;;;;;;16.75;12.40;;;;;;;;;;4989768;28;20285;-68
2022/03/21 12:11:30;;;;;;;18.75;12.35;;;;;;;;;;4971182;28;20654;-68
2022/03/21 12:14:15;;;;;;;17.50;13.82;;;;;;;;;;4990063;28;20233;-68
2022/03/21 12:16:40;;;;;;;21.98;13.98;;;;;;;;;;4985936;28;20206;-67
2022/03/21 12:19:05;;;;;;;15.00;13.40;;;;;;;;;;4989510;28;20184;-67
2022/03/21 12:21:31;;;;;;;13.80;12.38;;;;;;;;;;4990806;28;21111;-67
2022/03/21 12:24:12;;;;;;;16.80;12.93;;;;;;;;;;4991001;28;20188;-68
2022/03/21 12:26:38;;;;;;;15.10;13.50;;;;;;;;;;4989787;28;20623;-67
2022/03/21 12:29:34;;;;;;;17.23;13.97;;;;;;;;;;4973853;28;20191;-67
2022/03/21 12:32:18;;;;;;;17.73;13.38;;;;;;;;;;4990544;28;21033;-67
2022/03/21 12:34:44;;;;;;;14.68;13.15;;;;;;;;;;4983625;28;20208;-67
2022/03/21 12:37:23;;;;;;;18.23;14.05;;;;;;;;;;4972360;28;20190;-67
2022/03/21 12:39:48;;;;;;;18.60;14.23;;;;;;;;;;4984254;28;20266;-67
2022/03/21 12:42:17;;;;;;;19.38;14.27;;;;;;;;;;4991887;28;20712;-67
2022/03/21 12:44:43;;;;;;;18.17;14.93;;;;;;;;;;4993919;28;20237;-67
2022/03/21 12:47:09;;;;;;;17.97;14.17;;;;;;;;;;4992208;28;20184;-67
2022/03/21 12:49:48;;;;;;;22.00;15.00;;;;;;;;;;4995236;28;20986;-67
2022/03/21 12:52:24;;;;;;;15.82;13.80;;;;;;;;;;4989044;28;20277;-67
2022/03/21 12:54:50;;;;;;;21.20;14.45;;;;;;;;;;4990893;28;20694;-67
2022/03/21 12:57:15;;;;;;;19.00;14.45;;;;;;;;;;4989004;28;20266;-67
2022/03/21 12:59:40;;;;;;;19.87;13.90;;;;;;;;;;5000712;28;20174;-67
2022/03/21 13:02:05;;;;;;;20.87;14.53;;;;;;;;;;4993487;28;20457;-67
2022/03/21 13:12:42;;;;;;;19.05;14.73;;;;;;;;;;4992042;28;20202;-68
2022/03/21 13:15:11;;;;;;;19.10;15.10;;;;;;;;;;4990153;28;20584;-68
2022/03/21 13:17:45;;;;;;;19.25;15.30;;;;;;;;;;4991230;28;20171;-68
2022/03/21 13:20:13;;;;;;;19.05;14.90;;;;;;;;;;4990007;28;20303;-68
2022/03/21 13:22:38;;;;;;;20.20;15.00;;;;;;;;;;4999176;28;20210;-68
2022/03/21 13:25:04;;;;;;;18.95;15.40;;;;;;;;;;4993733;28;20196;-68
2022/03/21 13:27:33;;;;;;;24.00;15.88;;;;;;;;;;4998171;28;20536;-68
2022/03/21 13:29:58;;;;;;;17.92;14.93;;;;;;;;;;5002224;28;20213;-68
2022/03/21 13:32:23;;;;;;;22.07;15.13;;;;;;;;;;4991746;28;20231;-68
2022/03/21 13:34:52;;;;;;;20.13;15.80;;;;;;;;;;4991051;28;20457;-68
2022/03/21 13:37:19;;;;;;;19.08;15.77;;;;;;;;;;4990758;28;20184;-68
2022/03/21 13:40:04;;;;;;;17.17;14.70;;;;;;;;;;4991622;28;20677;-68
2022/03/21 13:42:31;;;;;;;18.85;15.15;;;;;;;;;;4992971;28;20211;-68
2022/03/21 13:45:01;;;;;;;19.40;14.82;;;;;;;;;;4981551;28;20206;-68
2022/03/21 13:47:27;;;;;;;18.40;14.60;;;;;;;;;;4991653;28;20180;-68
2022/03/21 13:50:03;;;;;;;20.05;14.88;;;;;;;;;;4998529;28;20183;-68
2022/03/21 13:52:44;;;;;;;17.40;15.45;;;;;;;;;;4996801;28;20695;-68
2022/03/21 13:55:13;;;;;;;17.90;14.88;;;;;;;;;;4989652;28;20238;-68
2022/03/21 13:57:48;;;;;;;20.30;15.25;;;;;;;;;;4991461;28;20654;-68
2022/03/21 14:00:15;;;;;;;20.35;15.45;;;;;;;;;;4988977;28;20183;-68
2022/03/21 14:02:44;;;;;;;19.40;15.07;;;;;;;;;;4996752;28;20187;-68
2022/03/21 14:05:13;;;;;;;25.02;16.38;;;;;;;;;;4993386;28;20164;-68
2022/03/21 14:07:38;;;;;;;23.40;17.20;;;;;;;;;;4993018;28;20638;-68
2022/03/21 14:10:16;;;;;;;16.75;14.95;;;;;;;;;;4994782;28;20186;-68
2022/03/21 14:12:42;;;;;;;21.65;16.73;;;;;;;;;;4991043;28;20208;-68
2022/03/21 14:15:08;;;;;;;16.20;14.32;;;;;;;;;;4987692;28;20286;-68
2022/03/21 14:17:33;;;;;;;20.38;15.77;;;;;;;;;;4991014;28;20176;-68
2022/03/21 14:19:58;;;;;;;19.87;15.47;;;;;;;;;;4989972;28;20259;-68
2022/03/21 14:22:23;;;;;;;21.40;16.27;;;;;;;;;;4991663;28;20536;-68
2022/03/21 14:24:48;;;;;;;21.10;15.57;;;;;;;;;;4990075;28;20456;-68
2022/03/21 14:27:14;;;;;;;21.43;15.60;;;;;;;;;;4993718;28;20453;-68
2022/03/21 14:29:39;;;;;;;21.20;15.80;;;;;;;;;;4991086;28;20452;-68
2022/03/21 14:32:06;;;;;;;17.80;15.03;;;;;;;;;;4991054;28;20273;-67
2022/03/21 14:34:31;;;;;;;18.05;14.85;;;;;;;;;;4991699;28;20425;-68
2022/03/21 14:36:56;;;;;;;20.23;14.67;;;;;;;;;;4990581;28;20198;-68
2022/03/21 14:39:22;;;;;;;19.48;14.77;;;;;;;;;;4990262;28;20921;-68
2022/03/21 14:41:47;;;;;;;18.60;15.60;;;;;;;;;;4993000;28;20581;-68
2022/03/21 14:44:13;;;;;;;22.70;15.38;;;;;;;;;;5001011;28;20192;-67
2022/03/21 14:46:38;;;;;;;19.15;16.20;;;;;;;;;;4973700;28;20274;-68